Time;durP1;ratioP1;P1;durP2;ratioP2;P2;SDS_P1;SDS_P2;PMS_P1;PMS_P2;Temp;Humidity;BMP_temperature;BMP_pressure;BME280_temperature;BME280_humidity;BME280_pressure;Samples;Min_cycle;Max_cycle;Signal;HPM_P1;HPM_P2
2021/09/15 00:01:03;;;;;;;;;7.00;7.00;;;;;-147.91;100.00;58652.34;5026657;28;45507;-88
2021/09/15 00:03:29;;;;;;;;;8.75;6.00;;;;;-147.91;100.00;58652.34;5031774;28;45696;-88
2021/09/15 00:05:54;;;;;;;;;4.50;4.50;;;;;-147.91;100.00;58652.34;5034207;28;45566;-88
2021/09/15 00:08:20;;;;;;;;;10.00;4.75;;;;;-147.91;100.00;58652.34;5032061;28;46299;-89
2021/09/15 00:10:46;;;;;;;;;6.25;4.75;;;;;-147.91;100.00;58652.34;5031626;28;45557;-88
2021/09/15 00:13:11;;;;;;;;;5.50;5.50;;;;;-147.91;100.00;58652.34;5015391;28;45395;-88
2021/09/15 00:15:38;;;;;;;;;6.00;6.00;;;;;-147.91;100.00;58652.34;5022597;28;45496;-88
2021/09/15 00:18:04;;;;;;;;;8.00;5.50;;;;;-147.91;100.00;58652.34;5045348;28;46920;-89
2021/09/15 00:20:29;;;;;;;;;5.50;5.25;;;;;-147.91;100.00;58652.34;5005970;28;45518;-89
2021/09/15 00:22:55;;;;;;;;;6.00;6.00;;;;;-147.91;100.00;58652.34;5139803;22;46355;-77
2021/09/15 00:25:20;;;;;;;;;5.00;5.00;;;;;-147.91;100.00;58652.34;5046430;28;45529;-78
2021/09/15 00:27:46;;;;;;;;;7.50;5.00;;;;;-147.91;100.00;58652.34;5037447;28;45699;-78
2021/09/15 00:30:11;;;;;;;;;7.50;5.00;;;;;-147.91;100.00;58652.34;5048518;28;45458;-78
2021/09/15 00:32:37;;;;;;;;;7.25;6.00;;;;;-147.91;100.00;58652.34;5042162;28;45490;-78
2021/09/15 00:35:06;;;;;;;;;7.50;6.75;;;;;-147.91;100.00;58652.34;5034364;28;45439;-78
2021/09/15 00:37:31;;;;;;;;;5.75;5.00;;;;;-147.91;100.00;58652.34;5032640;28;45710;-78
2021/09/15 00:39:57;;;;;;;;;6.00;5.00;;;;;-147.91;100.00;58652.34;5037623;28;45673;-78
2021/09/15 00:42:22;;;;;;;;;4.50;3.75;;;;;-147.91;100.00;58652.34;5049712;28;45378;-79
2021/09/15 00:44:48;;;;;;;;;8.25;6.75;;;;;-147.91;100.00;58652.34;5046442;28;45323;-78
2021/09/15 00:47:13;;;;;;;;;6.25;6.25;;;;;-147.91;100.00;58652.34;5043573;28;45423;-78
2021/09/15 00:49:38;;;;;;;;;6.25;4.25;;;;;-147.91;100.00;58652.34;5022394;28;45382;-77
2021/09/15 00:52:04;;;;;;;;;6.25;6.25;;;;;-147.91;100.00;58652.34;5045573;28;46029;-77
2021/09/15 00:54:29;;;;;;;;;5.50;5.25;;;;;-147.91;100.00;58652.34;5032507;28;46434;-78
2021/09/15 00:56:55;;;;;;;;;7.25;4.50;;;;;-147.91;100.00;58652.34;5032683;28;45498;-78
2021/09/15 00:59:20;;;;;;;;;4.00;4.00;;;;;-147.91;100.00;58652.34;5041900;28;45493;-78
2021/09/15 01:01:45;;;;;;;;;6.75;4.00;;;;;-147.91;100.00;58652.34;5042665;28;45373;-78
2021/09/15 01:04:11;;;;;;;;;7.50;5.50;;;;;-147.91;100.00;58652.34;5044565;28;45515;-78
2021/09/15 01:06:37;;;;;;;;;7.00;5.50;;;;;-147.91;100.00;58652.34;5048823;28;47024;-78
2021/09/15 01:09:05;;;;;;;;;5.25;5.00;;;;;-147.91;100.00;58652.34;5032648;28;45617;-78
2021/09/15 01:11:34;;;;;;;;;7.00;4.00;;;;;-147.91;100.00;58652.34;5039654;28;45429;-78
2021/09/15 01:14:01;;;;;;;;;7.00;4.00;;;;;-147.91;100.00;58652.34;5037536;28;45575;-78
2021/09/15 01:16:26;;;;;;;;;3.00;2.75;;;;;-147.91;100.00;58652.34;5037796;28;46407;-78
2021/09/15 01:18:51;;;;;;;;;6.00;6.00;;;;;-147.91;100.00;58652.34;5033721;28;45504;-78
2021/09/15 01:21:17;;;;;;;;;4.25;4.25;;;;;-147.91;100.00;58652.34;5033845;28;45346;-78
2021/09/15 01:23:42;;;;;;;;;5.75;4.00;;;;;-147.91;100.00;58652.34;5038607;28;45523;-78
2021/09/15 01:26:08;;;;;;;;;3.75;3.00;;;;;-147.91;100.00;58652.34;5047979;28;45517;-78
2021/09/15 01:28:33;;;;;;;;;4.75;4.75;;;;;-147.91;100.00;58652.34;5044030;28;45922;-77
2021/09/15 01:30:58;;;;;;;;;5.00;3.50;;;;;-147.91;100.00;58652.34;5037380;28;45551;-78
2021/09/15 01:33:24;;;;;;;;;2.75;2.75;;;;;-147.91;100.00;58652.34;5035683;28;45435;-79
2021/09/15 01:35:49;;;;;;;;;4.25;4.25;;;;;-147.91;100.00;58652.34;5040163;28;47167;-78
2021/09/15 01:38:15;;;;;;;;;4.50;4.50;;;;;-147.91;100.00;58652.34;5047496;28;45501;-78
2021/09/15 01:40:41;;;;;;;;;4.00;4.00;;;;;-147.91;100.00;58652.34;5038669;28;47270;-78
2021/09/15 01:48:51;;;;;;;;;7.25;5.25;;;;;-147.91;100.00;58652.34;4489951;22;45802;-78
2021/09/15 01:53:51;;;;;;;;;6.50;4.25;;;;;-147.91;100.00;58652.34;5117859;22;46425;-78
2021/09/15 01:56:17;;;;;;;;;5.75;4.75;;;;;-147.91;100.00;58652.34;5030710;28;47219;-79
2021/09/15 01:58:42;;;;;;;;;7.50;7.00;;;;;-147.91;100.00;58652.34;5053003;28;45760;-78
2021/09/15 02:01:07;;;;;;;;;6.25;4.25;;;;;-147.91;100.00;58652.34;5050568;28;46268;-79
2021/09/15 02:03:33;;;;;;;;;5.25;5.25;;;;;-147.91;100.00;58652.34;5051620;28;45403;-78
2021/09/15 02:05:59;;;;;;;;;4.75;4.75;;;;;-147.91;100.00;58652.34;5035885;28;46793;-79
2021/09/15 02:08:25;;;;;;;;;7.25;4.50;;;;;-147.91;100.00;58652.34;5049576;28;45702;-78
2021/09/15 02:10:52;;;;;;;;;6.75;5.75;;;;;-147.91;100.00;58652.34;5053691;28;45298;-78
2021/09/15 02:13:17;;;;;;;;;7.25;5.00;;;;;-147.91;100.00;58652.34;5045781;28;45604;-78
2021/09/15 02:15:43;;;;;;;;;4.00;4.00;;;;;-147.91;100.00;58652.34;5045266;28;46354;-79
2021/09/15 02:18:08;;;;;;;;;5.50;5.50;;;;;-147.91;100.00;58652.34;5050712;28;45563;-78
2021/09/15 02:20:35;;;;;;;;;5.75;4.00;;;;;-147.91;100.00;58652.34;5049192;28;45766;-79
2021/09/15 02:23:01;;;;;;;;;4.75;4.50;;;;;-147.91;100.00;58652.34;5043418;28;45722;-79
2021/09/15 02:25:26;;;;;;;;;5.50;4.75;;;;;-147.91;100.00;58652.34;5049919;28;46617;-79
2021/09/15 02:27:52;;;;;;;;;10.00;5.00;;;;;-147.91;100.00;58652.34;5048081;28;45618;-79
2021/09/15 02:30:17;;;;;;;;;9.00;5.75;;;;;-147.91;100.00;58652.34;5050570;28;45628;-79
2021/09/15 02:32:42;;;;;;;;;4.00;4.00;;;;;-147.91;100.00;58652.34;5048211;28;45558;-79
2021/09/15 02:35:08;;;;;;;;;5.00;5.00;;;;;-147.91;100.00;58652.34;5041452;28;45623;-79
2021/09/15 02:37:34;;;;;;;;;6.50;4.25;;;;;-147.91;100.00;58652.34;5048879;28;45952;-79
2021/09/15 02:39:59;;;;;;;;;5.25;5.25;;;;;-147.91;100.00;58652.34;5049093;28;45818;-79
2021/09/15 02:42:24;;;;;;;;;6.75;4.00;;;;;-147.91;100.00;58652.34;5050560;28;45437;-79
2021/09/15 02:44:50;;;;;;;;;7.50;4.75;;;;;-147.91;100.00;58652.34;5047360;28;46001;-79
2021/09/15 02:47:15;;;;;;;;;6.75;6.75;;;;;-147.91;100.00;58652.34;5048787;28;45338;-79
2021/09/15 02:49:40;;;;;;;;;5.00;3.75;;;;;-147.91;100.00;58652.34;5049099;28;45568;-79
2021/09/15 02:52:06;;;;;;;;;6.75;4.75;;;;;-147.91;100.00;58652.34;5043768;28;45539;-79
2021/09/15 02:54:31;;;;;;;;;8.50;5.00;;;;;-147.91;100.00;58652.34;5029100;28;47190;-79
2021/09/15 02:56:57;;;;;;;;;5.50;5.25;;;;;-147.91;100.00;58652.34;5026620;28;45478;-79
2021/09/15 02:59:22;;;;;;;;;5.50;4.75;;;;;-147.91;100.00;58652.34;5024697;28;45611;-79
2021/09/15 03:01:48;;;;;;;;;5.75;5.00;;;;;-147.91;100.00;58652.34;5029136;28;46082;-79
2021/09/15 03:04:13;;;;;;;;;8.25;4.50;;;;;-147.91;100.00;58652.34;5027800;28;45531;-79
2021/09/15 03:06:38;;;;;;;;;7.25;7.00;;;;;-147.91;100.00;58652.34;5010817;28;45332;-79
2021/09/15 03:09:04;;;;;;;;;8.00;7.25;;;;;-147.91;100.00;58652.34;5028874;28;45573;-79
2021/09/15 03:11:29;;;;;;;;;8.00;7.00;;;;;-147.91;100.00;58652.34;5024980;28;45431;-78
2021/09/15 03:13:55;;;;;;;;;7.75;7.75;;;;;-147.91;100.00;58652.34;5029788;28;45955;-78
2021/09/15 03:16:23;;;;;;;;;10.25;7.00;;;;;-147.91;100.00;58652.34;5027839;28;45505;-78
2021/09/15 03:18:48;;;;;;;;;8.25;5.75;;;;;-147.91;100.00;58652.34;5026920;28;45541;-79
2021/09/15 03:21:13;;;;;;;;;12.00;7.50;;;;;-147.91;100.00;58652.34;5294054;22;45527;-92
2021/09/15 03:23:39;;;;;;;;;7.00;6.50;;;;;-147.91;100.00;58652.34;5036389;28;45736;-92
2021/09/15 03:26:04;;;;;;;;;5.25;5.25;;;;;-147.91;100.00;58652.34;5006062;22;46011;-78
2021/09/15 03:28:30;;;;;;;;;7.25;7.25;;;;;-147.91;100.00;58652.34;4984346;28;45713;-78
2021/09/15 03:30:55;;;;;;;;;6.25;6.25;;;;;-147.91;100.00;58652.34;4996393;28;45710;-78
2021/09/15 03:33:20;;;;;;;;;6.00;6.00;;;;;-147.91;100.00;58652.34;5016028;28;45644;-78
2021/09/15 03:35:46;;;;;;;;;5.50;5.50;;;;;-147.91;100.00;58652.34;5016552;28;45548;-79
2021/09/15 03:38:11;;;;;;;;;7.00;6.00;;;;;-147.91;100.00;58652.34;5021159;28;45627;-79
2021/09/15 03:40:36;;;;;;;;;7.25;6.50;;;;;-147.91;100.00;58652.34;5028273;28;48667;-78
2021/09/15 03:43:02;;;;;;;;;7.00;5.50;;;;;-147.91;100.00;58652.34;5025076;28;45563;-78
2021/09/15 03:45:28;;;;;;;;;7.75;5.50;;;;;-147.91;100.00;58652.34;5021658;28;48362;-78
2021/09/15 03:47:53;;;;;;;;;8.25;6.50;;;;;-147.91;100.00;58652.34;5020568;28;45639;-78
2021/09/15 03:50:18;;;;;;;;;11.25;8.75;;;;;-147.91;100.00;58652.34;5024975;28;45502;-78
2021/09/15 03:52:44;;;;;;;;;6.50;6.00;;;;;-147.91;100.00;58652.34;5019060;28;45675;-79
2021/09/15 03:55:10;;;;;;;;;5.50;5.50;;;;;-147.91;100.00;58652.34;5006717;28;46160;-78
2021/09/15 03:57:35;;;;;;;;;4.75;4.75;;;;;-147.91;100.00;58652.34;5022756;28;45541;-78
2021/09/15 04:00:01;;;;;;;;;8.00;6.00;;;;;-147.91;100.00;58652.34;5021826;28;45429;-79
2021/09/15 04:02:26;;;;;;;;;8.50;7.00;;;;;-147.91;100.00;58652.34;5016939;28;46308;-78
2021/09/15 04:04:51;;;;;;;;;5.00;5.00;;;;;-147.91;100.00;58652.34;5026355;28;45379;-78
2021/09/15 04:07:17;;;;;;;;;9.25;7.00;;;;;-147.91;100.00;58652.34;5025926;28;45724;-78
2021/09/15 04:09:43;;;;;;;;;7.50;5.00;;;;;-147.91;100.00;58652.34;5024597;28;45640;-78
2021/09/15 04:12:08;;;;;;;;;6.00;5.75;;;;;-147.91;100.00;58652.34;5025418;28;46089;-79
2021/09/15 04:14:34;;;;;;;;;7.75;5.50;;;;;-147.91;100.00;58652.34;5022704;28;45598;-78
2021/09/15 04:17:00;;;;;;;;;5.50;5.25;;;;;-147.91;100.00;58652.34;5020422;28;45529;-79
2021/09/15 04:19:25;;;;;;;;;6.75;6.25;;;;;-147.91;100.00;58652.34;5027482;28;45608;-78
2021/09/15 04:21:51;;;;;;;;;6.50;5.50;;;;;-147.91;100.00;58652.34;5023198;28;46975;-79
2021/09/15 04:24:36;;;;;;;;;9.00;6.00;;;;;-147.91;100.00;58652.34;5003907;28;46239;-79
2021/09/15 04:32:30;;;;;;;;;7.25;5.00;;;;;-147.91;100.00;58652.34;5014206;28;45923;-79
2021/09/15 04:34:55;;;;;;;;;7.75;5.25;;;;;-147.91;100.00;58652.34;5020036;28;45646;-79
2021/09/15 04:37:21;;;;;;;;;7.00;5.75;;;;;-147.91;100.00;58652.34;5015986;28;51685;-79
2021/09/15 04:39:46;;;;;;;;;8.75;6.75;;;;;-147.91;100.00;58652.34;5015760;28;45635;-79
2021/09/15 04:42:12;;;;;;;;;7.00;4.75;;;;;-147.91;100.00;58652.34;5010201;28;46996;-79
2021/09/15 04:44:37;;;;;;;;;6.25;4.75;;;;;-147.91;100.00;58652.34;5026072;28;45574;-79
2021/09/15 04:47:03;;;;;;;;;8.50;5.50;;;;;-147.91;100.00;58652.34;5026173;28;45403;-78
2021/09/15 04:49:28;;;;;;;;;6.00;5.50;;;;;-147.91;100.00;58652.34;5016051;28;45517;-79
2021/09/15 04:51:53;;;;;;;;;8.00;5.00;;;;;-147.91;100.00;58652.34;5021823;28;45518;-79
2021/09/15 04:54:19;;;;;;;;;6.25;6.25;;;;;-147.91;100.00;58652.34;5022746;28;45338;-78
2021/09/15 04:56:44;;;;;;;;;9.00;6.00;;;;;-147.91;100.00;58652.34;5012113;28;45754;-79
2021/09/15 04:59:10;;;;;;;;;8.50;7.50;;;;;-147.91;100.00;58652.34;5020065;28;45599;-79
2021/09/15 05:01:35;;;;;;;;;6.75;6.00;;;;;-147.91;100.00;58652.34;5016875;28;45544;-78
2021/09/15 05:04:00;;;;;;;;;10.00;7.00;;;;;-147.91;100.00;58652.34;5020998;28;45482;-78
2021/09/15 05:06:26;;;;;;;;;6.25;6.25;;;;;-147.91;100.00;58652.34;5027651;28;45666;-79
2021/09/15 05:08:51;;;;;;;;;9.50;8.00;;;;;-147.91;100.00;58652.34;5019575;28;46122;-79
2021/09/15 05:11:16;;;;;;;;;9.75;8.25;;;;;-147.91;100.00;58652.34;5019009;28;45751;-79
2021/09/15 05:13:42;;;;;;;;;17.75;12.50;;;;;-147.91;100.00;58652.34;5021070;28;45530;-79
2021/09/15 05:16:07;;;;;;;;;10.75;10.25;;;;;-147.91;100.00;58652.34;5020622;28;45565;-79
2021/09/15 05:18:33;;;;;;;;;11.25;10.00;;;;;-147.91;100.00;58652.34;5021942;28;45520;-79
2021/09/15 05:20:58;;;;;;;;;13.50;12.25;;;;;-147.91;100.00;58652.34;5023794;28;45584;-79
2021/09/15 05:23:24;;;;;;;;;13.75;12.00;;;;;-147.91;100.00;58652.34;5020430;28;45614;-78
2021/09/15 05:25:49;;;;;;;;;13.25;10.00;;;;;-147.91;100.00;58652.34;5027244;28;45535;-79
2021/09/15 05:28:14;;;;;;;;;14.25;12.00;;;;;-147.91;100.00;58652.34;5022568;28;45547;-79
2021/09/15 05:30:40;;;;;;;;;16.25;11.00;;;;;-147.91;100.00;58652.34;5023871;28;46183;-79
2021/09/15 05:33:08;;;;;;;;;19.00;14.75;;;;;-147.91;100.00;58652.34;5026538;28;45516;-79
2021/09/15 05:35:33;;;;;;;;;20.00;17.25;;;;;-147.91;100.00;58652.34;5001073;28;46347;-78
2021/09/15 05:37:58;;;;;;;;;18.00;13.25;;;;;-147.91;100.00;58652.34;5024928;28;46048;-79
2021/09/15 05:40:24;;;;;;;;;20.50;17.75;;;;;-147.91;100.00;58652.34;5006726;28;46404;-79
2021/09/15 05:42:49;;;;;;;;;12.50;12.50;;;;;-147.91;100.00;58652.34;5021130;28;45556;-79
2021/09/15 05:45:15;;;;;;;;;16.50;14.00;;;;;-147.91;100.00;58652.34;5026024;28;45488;-78
2021/09/15 05:47:40;;;;;;;;;14.00;13.75;;;;;-147.91;100.00;58652.34;5028687;28;45520;-79
2021/09/15 05:50:06;;;;;;;;;16.50;16.00;;;;;-147.91;100.00;58652.34;5023976;28;45660;-78
2021/09/15 05:52:32;;;;;;;;;12.50;12.50;;;;;-147.91;100.00;58652.34;5027200;28;45658;-79
2021/09/15 05:54:57;;;;;;;;;19.50;12.50;;;;;-147.91;100.00;58652.34;5010867;28;46655;-79
2021/09/15 05:57:22;;;;;;;;;16.25;14.00;;;;;-147.91;100.00;58652.34;5025862;28;45598;-78
2021/09/15 05:59:48;;;;;;;;;13.00;12.00;;;;;-147.91;100.00;58652.34;5025474;28;45395;-78
2021/09/15 06:02:13;;;;;;;;;14.50;12.00;;;;;-147.91;100.00;58652.34;5000078;28;46052;-79
2021/09/15 06:04:38;;;;;;;;;13.25;11.00;;;;;-147.91;100.00;58652.34;5031618;28;45553;-78
2021/09/15 06:07:04;;;;;;;;;13.75;12.25;;;;;-147.91;100.00;58652.34;5008872;28;45704;-82
2021/09/15 06:09:29;;;;;;;;;11.75;9.75;;;;;-147.91;100.00;58652.34;5024848;28;46516;-81
2021/09/15 06:11:55;;;;;;;;;14.75;10.75;;;;;-147.91;100.00;58652.34;5029029;28;45601;-86
2021/09/15 06:14:20;;;;;;;;;10.25;8.50;;;;;-147.91;100.00;58652.34;5023551;28;45615;-81
2021/09/15 06:16:45;;;;;;;;;9.75;8.75;;;;;-147.91;100.00;58652.34;5026448;28;45448;-80
2021/09/15 06:19:11;;;;;;;;;9.75;8.00;;;;;-147.91;100.00;58652.34;5189768;22;45640;-93
2021/09/15 06:21:36;;;;;;;;;12.25;9.00;;;;;-147.91;100.00;58652.34;5026674;28;45604;-95
2021/09/15 06:24:02;;;;;;;;;10.50;8.50;;;;;-147.91;100.00;58652.34;5022452;28;45605;-92
2021/09/15 06:26:30;;;;;;;;;10.75;10.25;;;;;-147.91;100.00;58652.34;5019395;22;45682;-81
2021/09/15 06:28:55;;;;;;;;;8.25;7.00;;;;;-147.91;100.00;58652.34;5015749;28;45576;-81
2021/09/15 06:31:22;;;;;;;;;10.00;8.00;;;;;-147.91;100.00;58652.34;5018521;28;45732;-80
2021/09/15 06:33:48;;;;;;;;;8.00;7.50;;;;;-147.91;100.00;58652.34;5014659;28;46276;-80
2021/09/15 06:36:15;;;;;;;;;11.50;9.25;;;;;-147.91;100.00;58652.34;5021376;28;45613;-80
2021/09/15 06:38:44;;;;;;;;;11.75;10.00;;;;;-147.91;100.00;58652.34;5020669;28;46233;-79
2021/09/15 06:41:10;;;;;;;;;8.50;8.50;;;;;-147.91;100.00;58652.34;5018298;28;45670;-79
2021/09/15 06:43:37;;;;;;;;;10.00;7.00;;;;;-147.91;100.00;58652.34;5018931;28;45495;-80
2021/09/15 06:46:03;;;;;;;;;7.75;7.75;;;;;-147.91;100.00;58652.34;5021026;28;45664;-80
2021/09/15 06:48:28;;;;;;;;;8.50;7.50;;;;;-147.91;100.00;58652.34;5015106;28;46205;-80
2021/09/15 06:50:53;;;;;;;;;7.00;7.00;;;;;-147.91;100.00;58652.34;5009551;28;45481;-79
2021/09/15 06:53:19;;;;;;;;;9.00;8.50;;;;;-147.91;100.00;58652.34;5017455;28;57902;-79
2021/09/15 06:55:44;;;;;;;;;9.25;7.75;;;;;-147.91;100.00;58652.34;4997485;28;46442;-79
2021/09/15 06:58:10;;;;;;;;;11.75;9.50;;;;;-147.91;100.00;58652.34;4992174;28;46053;-80
2021/09/15 07:00:36;;;;;;;;;9.25;8.00;;;;;-147.91;100.00;58652.34;5018839;28;46011;-79
2021/09/15 07:03:02;;;;;;;;;10.50;9.75;;;;;-147.91;100.00;58652.34;5014528;28;45929;-79
2021/09/15 07:05:28;;;;;;;;;8.00;7.50;;;;;-147.91;100.00;58652.34;5019721;28;45614;-79
2021/09/15 07:07:55;;;;;;;;;12.50;9.75;;;;;-147.91;100.00;58652.34;5004362;28;47454;-79
2021/09/15 07:10:21;;;;;;;;;12.00;10.00;;;;;-147.91;100.00;58652.34;5020302;28;45611;-80
2021/09/15 07:12:47;;;;;;;;;11.00;9.00;;;;;-147.91;100.00;58652.34;5007423;28;45714;-79
2021/09/15 07:15:14;;;;;;;;;9.75;9.25;;;;;-147.91;100.00;58652.34;5020927;28;45637;-79
2021/09/15 07:17:39;;;;;;;;;11.00;9.50;;;;;-147.91;100.00;58652.34;5021607;28;45550;-80
2021/09/15 07:20:05;;;;;;;;;9.00;9.00;;;;;-147.91;100.00;58652.34;4999003;28;45585;-80
2021/09/15 07:22:31;;;;;;;;;12.50;9.00;;;;;-147.91;100.00;58652.34;5025009;28;45596;-81
2021/09/15 07:24:56;;;;;;;;;10.00;9.00;;;;;-147.91;100.00;58652.34;5014285;28;45584;-80
2021/09/15 07:29:57;;;;;;;;;10.25;9.50;;;;;-147.91;100.00;58652.34;5282799;22;46889;-83
2021/09/15 07:32:23;;;;;;;;;10.25;7.50;;;;;-147.91;100.00;58652.34;4969320;28;45503;-82
2021/09/15 07:34:49;;;;;;;;;11.75;8.75;;;;;-147.91;100.00;58652.34;4990575;28;45498;-83
2021/09/15 07:37:39;;;;;;;;;13.25;8.50;;;;;-147.91;100.00;58652.34;4996613;28;45701;-81
2021/09/15 07:45:15;;;;;;;;;10.25;10.00;;;;;-147.91;100.00;58652.34;5527180;22;45897;-85
2021/09/15 07:47:41;;;;;;;;;8.75;7.25;;;;;-147.91;100.00;58652.34;5037493;28;46934;-82
2021/09/15 07:50:09;;;;;;;;;14.25;10.50;;;;;-147.91;100.00;58652.34;5022764;28;48816;-82
2021/09/15 07:52:35;;;;;;;;;7.50;6.50;;;;;-147.91;100.00;58652.34;5014624;28;45600;-82
2021/09/15 07:55:00;;;;;;;;;11.25;9.50;;;;;-147.91;100.00;58652.34;5031661;28;44837;-84
2021/09/15 07:57:25;;;;;;;;;8.50;6.75;;;;;-147.91;100.00;58652.34;5031939;28;42343;-87
2021/09/15 07:59:51;;;;;;;;;7.75;6.25;;;;;-147.91;100.00;58652.34;5045490;28;29733;-83
2021/09/15 08:02:16;;;;;;;;;7.25;5.00;;;;;-147.91;100.00;58652.34;5036024;28;28623;-83
2021/09/15 08:04:41;;;;;;;;;7.00;7.00;;;;;-147.91;100.00;58652.34;5040449;28;28633;-81
2021/09/15 08:07:07;;;;;;;;;8.75;7.25;;;;;-147.91;100.00;58652.34;5031378;28;29211;-81
2021/09/15 08:09:34;;;;;;;;;7.75;6.50;;;;;-147.91;100.00;58652.34;5021280;28;45619;-81
2021/09/15 08:12:00;;;;;;;;;7.75;7.25;;;;;-147.91;100.00;58652.34;5019373;28;45460;-83
2021/09/15 08:14:26;;;;;;;;;5.75;5.75;;;;;-147.91;100.00;58652.34;5012652;28;45460;-82
2021/09/15 08:16:52;;;;;;;;;6.25;4.75;;;;;-147.91;100.00;58652.34;5012400;28;47238;-82
2021/09/15 08:19:22;;;;;;;;;5.00;4.00;;;;;-147.91;100.00;58652.34;5003969;28;45485;-82
2021/09/15 08:21:49;;;;;;;;;8.25;5.75;;;;;-147.91;100.00;58652.34;5020510;28;45907;-82
2021/09/15 08:24:14;;;;;;;;;5.25;5.25;;;;;-147.91;100.00;58652.34;5022365;28;45680;-81
2021/09/15 08:26:41;;;;;;;;;3.75;3.75;;;;;-147.91;100.00;58652.34;5641886;22;46241;-81
2021/09/15 08:29:07;;;;;;;;;6.00;6.00;;;;;-147.91;100.00;58652.34;5500504;22;46147;-81
2021/09/15 08:31:32;;;;;;;;;5.75;5.00;;;;;-147.91;100.00;58652.34;5010516;28;46094;-81
2021/09/15 08:33:58;;;;;;;;;7.00;6.50;;;;;-147.91;100.00;58652.34;5014070;28;45662;-81
2021/09/15 08:36:23;;;;;;;;;5.50;5.25;;;;;-147.91;100.00;58652.34;5000129;28;47679;-81
2021/09/15 08:38:48;;;;;;;;;5.50;4.00;;;;;-147.91;100.00;58652.34;5014523;28;55448;-81
2021/09/15 08:41:14;;;;;;;;;9.00;8.00;;;;;-147.91;100.00;58652.34;5022464;28;45549;-81
2021/09/15 08:43:40;;;;;;;;;5.75;5.75;;;;;-147.91;100.00;58652.34;5012116;28;46433;-80
2021/09/15 08:46:13;;;;;;;;;7.00;6.00;;;;;-147.91;100.00;58652.34;4998630;28;48285;-81
2021/09/15 08:48:40;;;;;;;;;6.75;6.50;;;;;-147.91;100.00;58652.34;5008060;28;45608;-80
2021/09/15 08:51:17;;;;;;;;;7.25;7.25;;;;;-147.91;100.00;58652.34;4997469;28;46229;-82
2021/09/15 08:53:44;;;;;;;;;9.25;6.00;;;;;-147.91;100.00;58652.34;5021193;28;45580;-81
2021/09/15 08:56:10;;;;;;;;;6.00;6.00;;;;;-147.91;100.00;58652.34;5022700;28;46172;-81
2021/09/15 08:58:36;;;;;;;;;9.50;6.00;;;;;-147.91;100.00;58652.34;5017975;28;45459;-81
2021/09/15 09:01:17;;;;;;;;;8.50;7.00;;;;;-147.91;100.00;58652.34;5014521;28;45648;-81
2021/09/15 09:03:44;;;;;;;;;9.50;7.50;;;;;-147.91;100.00;58652.34;5012591;28;45536;-80
2021/09/15 09:06:15;;;;;;;;;9.00;7.25;;;;;-147.91;100.00;58652.34;5018802;28;46336;-80
2021/09/15 09:08:42;;;;;;;;;7.25;7.25;;;;;-147.91;100.00;58652.34;5006388;28;45543;-80
2021/09/15 09:11:09;;;;;;;;;9.50;8.25;;;;;-147.91;100.00;58652.34;5028281;28;45572;-80
2021/09/15 09:13:46;;;;;;;;;7.00;7.00;;;;;-147.91;100.00;58652.34;5020922;28;47551;-81
2021/09/15 09:16:11;;;;;;;;;13.00;10.00;;;;;-147.91;100.00;58652.34;5026771;28;45498;-79
2021/09/15 09:19:04;;;;;;;;;10.00;9.00;;;;;-147.91;100.00;58652.34;5026227;28;45582;-80
2021/09/15 09:21:32;;;;;;;;;8.50;7.00;;;;;-147.91;100.00;58652.34;5013439;28;45510;-80
2021/09/15 09:24:01;;;;;;;;;10.00;9.50;;;;;-147.91;100.00;58652.34;5015850;28;45683;-80
2021/09/15 09:26:46;;;;;;;;;10.00;8.25;;;;;-147.91;100.00;58652.34;5018340;28;46023;-80
2021/09/15 09:29:14;;;;;;;;;7.75;7.50;;;;;-147.91;100.00;58652.34;5023264;28;50854;-80
2021/09/15 09:31:40;;;;;;;;;10.25;8.50;;;;;-147.91;100.00;58652.34;5012952;28;45754;-80
2021/09/15 09:34:05;;;;;;;;;10.25;6.75;;;;;-147.91;100.00;58652.34;5020607;28;45550;-81
2021/09/15 09:36:31;;;;;;;;;7.25;7.25;;;;;-147.91;100.00;58652.34;5028077;28;46840;-80
2021/09/15 09:38:56;;;;;;;;;7.50;7.50;;;;;-147.91;100.00;58652.34;5015559;28;45565;-80
2021/09/15 09:41:22;;;;;;;;;7.75;6.75;;;;;-147.91;100.00;58652.34;5022618;28;45804;-80
2021/09/15 09:43:48;;;;;;;;;11.25;9.00;;;;;-147.91;100.00;58652.34;5022640;28;45540;-80
2021/09/15 09:46:19;;;;;;;;;10.25;10.25;;;;;-147.91;100.00;58652.34;5015980;28;45542;-80
2021/09/15 09:48:47;;;;;;;;;12.75;9.00;;;;;-147.91;100.00;58652.34;5026134;28;45686;-80
2021/09/15 09:51:21;;;;;;;;;9.25;8.00;;;;;-147.91;100.00;58652.34;5012971;28;45440;-81
2021/09/15 09:53:47;;;;;;;;;14.25;10.75;;;;;-147.91;100.00;58652.34;5016788;28;45563;-81
2021/09/15 09:56:13;;;;;;;;;13.50;10.25;;;;;-147.91;100.00;58652.34;5026302;28;46485;-80
2021/09/15 09:58:43;;;;;;;;;11.25;9.75;;;;;-147.91;100.00;58652.34;5022038;28;45469;-80
2021/09/15 10:01:16;;;;;;;;;11.00;11.00;;;;;-147.91;100.00;58652.34;5020253;28;45549;-80
2021/09/15 10:03:44;;;;;;;;;12.75;11.00;;;;;-147.91;100.00;58652.34;5024424;28;46453;-80
2021/09/15 10:06:09;;;;;;;;;13.75;11.50;;;;;-147.91;100.00;58652.34;5021658;28;46433;-80
2021/09/15 10:08:35;;;;;;;;;10.50;8.50;;;;;-147.91;100.00;58652.34;5025006;28;45662;-80
2021/09/15 10:11:01;;;;;;;;;10.75;10.00;;;;;-147.91;100.00;58652.34;5027637;28;45620;-80
2021/09/15 10:13:26;;;;;;;;;10.25;9.50;;;;;-147.91;100.00;58652.34;5017151;28;45610;-80
2021/09/15 10:15:58;;;;;;;;;14.75;9.50;;;;;-147.91;100.00;58652.34;5018328;28;45510;-81
2021/09/15 10:18:26;;;;;;;;;10.25;9.50;;;;;-147.91;100.00;58652.34;5008699;28;46371;-80
2021/09/15 10:20:55;;;;;;;;;10.25;9.00;;;;;-147.91;100.00;58652.34;5017127;28;45999;-83
2021/09/15 10:23:39;;;;;;;;;11.00;9.75;;;;;-147.91;100.00;58652.34;5010481;28;45569;-82
2021/09/15 10:26:27;;;;;;;;;8.00;8.00;;;;;-147.91;100.00;58652.34;5003542;28;47985;-82
2021/09/15 10:29:28;;;;;;;;;11.75;11.50;;;;;-147.91;100.00;58652.34;5001277;28;45699;-83
2021/09/15 10:32:02;;;;;;;;;11.00;10.50;;;;;-147.91;100.00;58652.34;5022552;28;45466;-83
2021/09/15 10:34:37;;;;;;;;;12.25;12.25;;;;;-147.91;100.00;58652.34;5010473;28;45495;-83
2021/09/15 10:37:12;;;;;;;;;10.25;10.25;;;;;-147.91;100.00;58652.34;5012681;28;45695;-79
2021/09/15 10:40:11;;;;;;;;;12.50;10.00;;;;;-147.91;100.00;58652.34;5021194;28;45936;-82
2021/09/15 10:42:39;;;;;;;;;14.25;10.50;;;;;-147.91;100.00;58652.34;5021960;28;45742;-82
2021/09/15 10:45:14;;;;;;;;;12.00;10.25;;;;;-147.91;100.00;58652.34;5022947;28;45599;-82
2021/09/15 10:47:48;;;;;;;;;12.25;12.00;;;;;-147.91;100.00;58652.34;5017932;28;45816;-81
2021/09/15 10:50:35;;;;;;;;;10.75;10.50;;;;;-147.91;100.00;58652.34;5021740;28;45591;-81
2021/09/15 10:53:04;;;;;;;;;13.00;11.75;;;;;-147.91;100.00;58652.34;5024212;28;46410;-80
2021/09/15 10:55:56;;;;;;;;;18.50;13.00;;;;;-147.91;100.00;58652.34;5018399;28;46321;-81
2021/09/15 10:58:31;;;;;;;;;9.50;8.75;;;;;-147.91;100.00;58652.34;5011495;28;51082;-80
2021/09/15 11:00:56;;;;;;;;;9.00;7.75;;;;;-147.91;100.00;58652.34;5023250;28;45625;-80
2021/09/15 11:03:23;;;;;;;;;10.00;10.00;;;;;-147.91;100.00;58652.34;5059552;28;31576;-77
2021/09/15 11:05:50;;;;;;;;;8.00;6.50;;;;;-147.91;100.00;58652.34;5025470;28;45552;-80
2021/09/15 11:08:30;;;;;;;;;6.00;6.00;;;;;-147.91;100.00;58652.34;5015556;28;46162;-79
2021/09/15 11:10:56;;;;;;;;;4.00;4.00;;;;;-147.91;100.00;58652.34;5024826;28;45391;-79
2021/09/15 11:13:27;;;;;;;;;9.00;6.00;;;;;-147.91;100.00;58652.34;5018942;28;45453;-82
2021/09/15 11:15:54;;;;;;;;;5.00;4.25;;;;;-147.91;100.00;58652.34;5017299;28;45811;-81
2021/09/15 11:18:24;;;;;;;;;6.00;4.50;;;;;-147.91;100.00;58652.34;5022283;28;46974;-80
2021/09/15 11:20:59;;;;;;;;;5.75;4.50;;;;;-147.91;100.00;58652.34;5022047;28;45447;-82
2021/09/15 11:23:29;;;;;;;;;7.50;5.00;;;;;-147.91;100.00;58652.34;5012738;28;45613;-83
2021/09/15 11:25:55;;;;;;;;;8.25;5.00;;;;;-147.91;100.00;58652.34;5009724;28;46021;-81